sensor_id;sensor_type;location;lat;lon;timestamp;P1;durP1;ratioP1;P2;durP2;ratioP2
51491;SDS011;37569;50.548;8.778;2023-04-12T00:03:03;5.5;;;2.2;;
51491;SDS011;37569;50.548;8.778;2023-04-12T00:08:01;4;;;2;;
51491;SDS011;37569;50.548;8.778;2023-04-12T00:13:02;5.4;;;2.3;;
51491;SDS011;37569;50.548;8.778;2023-04-12T00:18:02;4.2;;;2.5;;
51491;SDS011;37569;50.548;8.778;2023-04-12T00:23:02;6.9;;;2.3;;
51491;SDS011;37569;50.548;8.778;2023-04-12T00:28:03;5.9;;;2.6;;
51491;SDS011;37569;50.548;8.778;2023-04-12T00:33:03;5.8;;;2.4;;
51491;SDS011;37569;50.548;8.778;2023-04-12T00:38:03;6.6;;;2.8;;
51491;SDS011;37569;50.548;8.778;2023-04-12T00:43:04;5.9;;;2.5;;
51491;SDS011;37569;50.548;8.778;2023-04-12T00:48:04;6.9;;;2.3;;
51491;SDS011;37569;50.548;8.778;2023-04-12T00:53:04;6.7;;;2.3;;
51491;SDS011;37569;50.548;8.778;2023-04-12T00:58:05;6.4;;;2.3;;
51491;SDS011;37569;50.548;8.778;2023-04-12T01:03:05;4.9;;;2.3;;
51491;SDS011;37569;50.548;8.778;2023-04-12T01:08:08;6.2;;;2.4;;
51491;SDS011;37569;50.548;8.778;2023-04-12T01:13:08;7.9;;;2.5;;
51491;SDS011;37569;50.548;8.778;2023-04-12T01:18:07;5;;;2.4;;
51491;SDS011;37569;50.548;8.778;2023-04-12T01:23:16;3.5;;;2;;
51491;SDS011;37569;50.548;8.778;2023-04-12T01:28:07;4.6;;;2.1;;
51491;SDS011;37569;50.548;8.778;2023-04-12T01:38:07;3.9;;;2.3;;
51491;SDS011;37569;50.548;8.778;2023-04-12T01:43:08;5.2;;;2.2;;
51491;SDS011;37569;50.548;8.778;2023-04-12T01:48:09;6.1;;;2.3;;
51491;SDS011;37569;50.548;8.778;2023-04-12T01:53:10;8.7;;;2.4;;
51491;SDS011;37569;50.548;8.778;2023-04-12T01:58:09;4.5;;;2;;
51491;SDS011;37569;50.548;8.778;2023-04-12T02:03:09;7.7;;;2.3;;
51491;SDS011;37569;50.548;8.778;2023-04-12T02:08:09;5.1;;;2;;
51491;SDS011;37569;50.548;8.778;2023-04-12T02:13:10;8.7;;;2.3;;
51491;SDS011;37569;50.548;8.778;2023-04-12T02:18:10;7.7;;;2.7;;
51491;SDS011;37569;50.548;8.778;2023-04-12T02:23:10;5.9;;;2.3;;
51491;SDS011;37569;50.548;8.778;2023-04-12T02:28:11;6.2;;;2.3;;
51491;SDS011;37569;50.548;8.778;2023-04-12T02:33:11;6.1;;;2.3;;
51491;SDS011;37569;50.548;8.778;2023-04-12T02:38:11;7.7;;;2.6;;
51491;SDS011;37569;50.548;8.778;2023-04-12T02:43:12;5.9;;;2.2;;
51491;SDS011;37569;50.548;8.778;2023-04-12T02:48:12;7;;;2.5;;
51491;SDS011;37569;50.548;8.778;2023-04-12T02:53:14;6.3;;;2.6;;
51491;SDS011;37569;50.548;8.778;2023-04-12T02:58:13;5.6;;;2.4;;
51491;SDS011;37569;50.548;8.778;2023-04-12T03:03:13;7.3;;;3;;
51491;SDS011;37569;50.548;8.778;2023-04-12T03:08:14;6;;;2.5;;
51491;SDS011;37569;50.548;8.778;2023-04-12T03:13:14;7;;;2.2;;
51491;SDS011;37569;50.548;8.778;2023-04-12T03:18:14;8.4;;;3;;
51491;SDS011;37569;50.548;8.778;2023-04-12T03:23:15;6.3;;;2.9;;
51491;SDS011;37569;50.548;8.778;2023-04-12T03:28:15;9.5;;;2.9;;
51491;SDS011;37569;50.548;8.778;2023-04-12T03:33:15;8.2;;;2.8;;
51491;SDS011;37569;50.548;8.778;2023-04-12T03:38:16;7.9;;;3.2;;
51491;SDS011;37569;50.548;8.778;2023-04-12T03:43:16;7.9;;;3.1;;
51491;SDS011;37569;50.548;8.778;2023-04-12T03:48:16;5.4;;;3.1;;
51491;SDS011;37569;50.548;8.778;2023-04-12T03:53:17;7.2;;;3.4;;
51491;SDS011;37569;50.548;8.778;2023-04-12T03:58:18;8.2;;;3.1;;
51491;SDS011;37569;50.548;8.778;2023-04-12T04:03:17;8;;;3.3;;
51491;SDS011;37569;50.548;8.778;2023-04-12T04:08:18;5.7;;;3.4;;
51491;SDS011;37569;50.548;8.778;2023-04-12T04:13:18;9.5;;;3.4;;
51491;SDS011;37569;50.548;8.778;2023-04-12T04:18:18;9.1;;;3.4;;
51491;SDS011;37569;50.548;8.778;2023-04-12T04:23:19;8.3;;;3.9;;
51491;SDS011;37569;50.548;8.778;2023-04-12T04:28:19;8.5;;;5.2;;
51491;SDS011;37569;50.548;8.778;2023-04-12T04:33:19;9.9;;;5.3;;
51491;SDS011;37569;50.548;8.778;2023-04-12T04:38:20;10.6;;;4.9;;
51491;SDS011;37569;50.548;8.778;2023-04-12T04:43:20;9.7;;;4.4;;
51491;SDS011;37569;50.548;8.778;2023-04-12T04:48:20;8.9;;;4.5;;
51491;SDS011;37569;50.548;8.778;2023-04-12T04:53:21;11.3;;;4.9;;
51491;SDS011;37569;50.548;8.778;2023-04-12T04:58:21;9.8;;;4.5;;
51491;SDS011;37569;50.548;8.778;2023-04-12T05:03:21;9.8;;;5;;
51491;SDS011;37569;50.548;8.778;2023-04-12T05:08:22;6;;;3.8;;
51491;SDS011;37569;50.548;8.778;2023-04-12T05:13:22;6.8;;;3.7;;
51491;SDS011;37569;50.548;8.778;2023-04-12T05:18:23;8.7;;;3.7;;
51491;SDS011;37569;50.548;8.778;2023-04-12T05:23:23;8;;;4.3;;
51491;SDS011;37569;50.548;8.778;2023-04-12T05:28:23;7;;;3.4;;
51491;SDS011;37569;50.548;8.778;2023-04-12T05:33:24;7.4;;;4.4;;
51491;SDS011;37569;50.548;8.778;2023-04-12T05:38:24;6.9;;;3.1;;
51491;SDS011;37569;50.548;8.778;2023-04-12T05:43:24;5.7;;;3.5;;
51491;SDS011;37569;50.548;8.778;2023-04-12T05:48:25;4.4;;;3.2;;
51491;SDS011;37569;50.548;8.778;2023-04-12T05:53:25;6.3;;;2.9;;
51491;SDS011;37569;50.548;8.778;2023-04-12T05:58:25;7.1;;;3;;
51491;SDS011;37569;50.548;8.778;2023-04-12T06:03:26;5.9;;;2.6;;
51491;SDS011;37569;50.548;8.778;2023-04-12T06:08:26;5.8;;;2.9;;
51491;SDS011;37569;50.548;8.778;2023-04-12T06:13:26;5.5;;;2.5;;
51491;SDS011;37569;50.548;8.778;2023-04-12T06:18:27;7.4;;;2.8;;
51491;SDS011;37569;50.548;8.778;2023-04-12T06:23:27;5.1;;;2.4;;
51491;SDS011;37569;50.548;8.778;2023-04-12T06:28:27;4.3;;;2.6;;
51491;SDS011;37569;50.548;8.778;2023-04-12T06:33:28;5.7;;;2.7;;
51491;SDS011;37569;50.548;8.778;2023-04-12T06:38:28;5.3;;;2.7;;
51491;SDS011;37569;50.548;8.778;2023-04-12T06:43:28;3.9;;;2.4;;
51491;SDS011;37569;50.548;8.778;2023-04-12T06:48:29;3.4;;;2.3;;
51491;SDS011;37569;50.548;8.778;2023-04-12T06:53:29;4.9;;;2.3;;
51491;SDS011;37569;50.548;8.778;2023-04-12T06:58:29;3.6;;;2.1;;
51491;SDS011;37569;50.548;8.778;2023-04-12T07:03:30;3.7;;;2.3;;
51491;SDS011;37569;50.548;8.778;2023-04-12T07:08:31;4;;;2.1;;
51491;SDS011;37569;50.548;8.778;2023-04-12T07:13:30;4;;;2.5;;
51491;SDS011;37569;50.548;8.778;2023-04-12T07:18:31;3.9;;;2.3;;
51491;SDS011;37569;50.548;8.778;2023-04-12T07:23:31;3.6;;;2.1;;
51491;SDS011;37569;50.548;8.778;2023-04-12T07:28:31;4.7;;;2.8;;
51491;SDS011;37569;50.548;8.778;2023-04-12T07:33:32;2.7;;;1.9;;
51491;SDS011;37569;50.548;8.778;2023-04-12T07:38:32;3.1;;;2.3;;
51491;SDS011;37569;50.548;8.778;2023-04-12T07:43:33;3.7;;;1.9;;
51491;SDS011;37569;50.548;8.778;2023-04-12T07:48:33;4.6;;;2.3;;
51491;SDS011;37569;50.548;8.778;2023-04-12T07:53:33;3.6;;;2.1;;
51491;SDS011;37569;50.548;8.778;2023-04-12T07:58:34;4.2;;;2.2;;
51491;SDS011;37569;50.548;8.778;2023-04-12T08:03:34;3.1;;;1.9;;
51491;SDS011;37569;50.548;8.778;2023-04-12T08:08:34;2.8;;;1.6;;
51491;SDS011;37569;50.548;8.778;2023-04-12T08:13:35;3.2;;;1.7;;
51491;SDS011;37569;50.548;8.778;2023-04-12T08:18:35;3.3;;;2;;
51491;SDS011;37569;50.548;8.778;2023-04-12T08:23:35;3.2;;;1.9;;
51491;SDS011;37569;50.548;8.778;2023-04-12T08:28:36;2.8;;;1.8;;
51491;SDS011;37569;50.548;8.778;2023-04-12T08:33:36;3.7;;;2.4;;
51491;SDS011;37569;50.548;8.778;2023-04-12T08:38:36;3.4;;;2.3;;
51491;SDS011;37569;50.548;8.778;2023-04-12T08:43:37;3.3;;;2.5;;
51491;SDS011;37569;50.548;8.778;2023-04-12T08:48:37;3.2;;;2.5;;
51491;SDS011;37569;50.548;8.778;2023-04-12T08:53:37;3;;;2.5;;
51491;SDS011;37569;50.548;8.778;2023-04-12T08:58:38;3.3;;;2;;
51491;SDS011;37569;50.548;8.778;2023-04-12T09:03:38;2.6;;;1.8;;
51491;SDS011;37569;50.548;8.778;2023-04-12T09:08:49;2.3;;;2;;
51491;SDS011;37569;50.548;8.778;2023-04-12T09:13:39;3.1;;;1.9;;
51491;SDS011;37569;50.548;8.778;2023-04-12T09:18:46;2.7;;;1.8;;
51491;SDS011;37569;50.548;8.778;2023-04-12T09:23:40;2.6;;;2;;
51491;SDS011;37569;50.548;8.778;2023-04-12T09:28:40;3.3;;;1.7;;
51491;SDS011;37569;50.548;8.778;2023-04-12T09:33:41;1.7;;;1.6;;
51491;SDS011;37569;50.548;8.778;2023-04-12T09:38:56;2.7;;;1.7;;
51491;SDS011;37569;50.548;8.778;2023-04-12T09:43:41;3.1;;;2;;
51491;SDS011;37569;50.548;8.778;2023-04-12T09:48:47;2.7;;;1.9;;
51491;SDS011;37569;50.548;8.778;2023-04-12T09:53:42;2.4;;;1.6;;
51491;SDS011;37569;50.548;8.778;2023-04-12T09:58:43;2.3;;;1.8;;
51491;SDS011;37569;50.548;8.778;2023-04-12T10:03:43;2.5;;;1.9;;
51491;SDS011;37569;50.548;8.778;2023-04-12T10:08:43;2.7;;;1.8;;
51491;SDS011;37569;50.548;8.778;2023-04-12T10:13:44;2.7;;;1.8;;
51491;SDS011;37569;50.548;8.778;2023-04-12T10:18:44;2.6;;;2.1;;
51491;SDS011;37569;50.548;8.778;2023-04-12T10:23:44;2.7;;;2;;
51491;SDS011;37569;50.548;8.778;2023-04-12T10:28:45;3.5;;;2.2;;
51491;SDS011;37569;50.548;8.778;2023-04-12T10:33:45;3.2;;;2;;
51491;SDS011;37569;50.548;8.778;2023-04-12T10:38:46;2.2;;;2;;
51491;SDS011;37569;50.548;8.778;2023-04-12T10:43:46;3.2;;;2.2;;
51491;SDS011;37569;50.548;8.778;2023-04-12T10:48:50;3;;;2.5;;
51491;SDS011;37569;50.548;8.778;2023-04-12T10:53:47;4.6;;;2.8;;
51491;SDS011;37569;50.548;8.778;2023-04-12T10:58:55;3.2;;;2.3;;
51491;SDS011;37569;50.548;8.778;2023-04-12T11:04:05;4;;;2.7;;
51491;SDS011;37569;50.548;8.778;2023-04-12T11:08:48;4.1;;;2.5;;
51491;SDS011;37569;50.548;8.778;2023-04-12T11:13:53;3.4;;;2.7;;
51491;SDS011;37569;50.548;8.778;2023-04-12T11:18:49;3.4;;;2.7;;
51491;SDS011;37569;50.548;8.778;2023-04-12T11:23:50;3.1;;;2.8;;
51491;SDS011;37569;50.548;8.778;2023-04-12T11:28:50;3.9;;;2.8;;
51491;SDS011;37569;50.548;8.778;2023-04-12T11:33:50;3.5;;;2.9;;
51491;SDS011;37569;50.548;8.778;2023-04-12T11:38:51;3.3;;;3;;
51491;SDS011;37569;50.548;8.778;2023-04-12T11:43:51;4.6;;;3.4;;
51491;SDS011;37569;50.548;8.778;2023-04-12T11:48:51;3.6;;;3.3;;
51491;SDS011;37569;50.548;8.778;2023-04-12T11:53:52;3.4;;;3.1;;
51491;SDS011;37569;50.548;8.778;2023-04-12T11:58:52;4.1;;;3.7;;
51491;SDS011;37569;50.548;8.778;2023-04-12T12:03:53;4.1;;;3.3;;
51491;SDS011;37569;50.548;8.778;2023-04-12T12:08:53;3.8;;;3.4;;
51491;SDS011;37569;50.548;8.778;2023-04-12T12:13:54;4.8;;;3.3;;
51491;SDS011;37569;50.548;8.778;2023-04-12T12:18:54;4;;;3.3;;
51491;SDS011;37569;50.548;8.778;2023-04-12T12:23:54;4.1;;;3.5;;
51491;SDS011;37569;50.548;8.778;2023-04-12T12:28:55;4.1;;;3.6;;
51491;SDS011;37569;50.548;8.778;2023-04-12T12:33:56;4;;;3.6;;
51491;SDS011;37569;50.548;8.778;2023-04-12T12:39:01;4.1;;;3.7;;
51491;SDS011;37569;50.548;8.778;2023-04-12T12:43:56;3.8;;;3.4;;
51491;SDS011;37569;50.548;8.778;2023-04-12T12:48:57;5.2;;;4.7;;
51491;SDS011;37569;50.548;8.778;2023-04-12T12:53:57;4.8;;;4.3;;
51491;SDS011;37569;50.548;8.778;2023-04-12T12:58:58;4.9;;;4.4;;
51491;SDS011;37569;50.548;8.778;2023-04-12T13:03:58;5;;;4.2;;
51491;SDS011;37569;50.548;8.778;2023-04-12T13:08:59;4.7;;;4.3;;
51491;SDS011;37569;50.548;8.778;2023-04-12T13:13:59;3.9;;;3.6;;
51491;SDS011;37569;50.548;8.778;2023-04-12T13:19:00;3.7;;;3.1;;
51491;SDS011;37569;50.548;8.778;2023-04-12T13:24:01;4.1;;;3.2;;
51491;SDS011;37569;50.548;8.778;2023-04-12T13:29:01;4.7;;;3.5;;
51491;SDS011;37569;50.548;8.778;2023-04-12T13:34:02;3.5;;;3.2;;
51491;SDS011;37569;50.548;8.778;2023-04-12T13:39:02;3.3;;;2.9;;
51491;SDS011;37569;50.548;8.778;2023-04-12T13:44:03;3.8;;;3;;
51491;SDS011;37569;50.548;8.778;2023-04-12T13:49:03;2.5;;;2.1;;
51491;SDS011;37569;50.548;8.778;2023-04-12T13:54:04;2.4;;;2.2;;
51491;SDS011;37569;50.548;8.778;2023-04-12T13:59:04;2.4;;;2.1;;
51491;SDS011;37569;50.548;8.778;2023-04-12T14:04:05;2.1;;;1.9;;
51491;SDS011;37569;50.548;8.778;2023-04-12T14:09:06;2.5;;;1.9;;
51491;SDS011;37569;50.548;8.778;2023-04-12T14:14:06;2;;;1.7;;
51491;SDS011;37569;50.548;8.778;2023-04-12T14:19:07;1.7;;;1.5;;
51491;SDS011;37569;50.548;8.778;2023-04-12T14:24:07;2;;;1.4;;
51491;SDS011;37569;50.548;8.778;2023-04-12T14:29:08;2.3;;;2;;
51491;SDS011;37569;50.548;8.778;2023-04-12T14:34:09;2.1;;;1.7;;
51491;SDS011;37569;50.548;8.778;2023-04-12T14:39:09;1.7;;;1.6;;
51491;SDS011;37569;50.548;8.778;2023-04-12T14:44:10;2.4;;;1.8;;
51491;SDS011;37569;50.548;8.778;2023-04-12T14:49:10;1.7;;;1.6;;
51491;SDS011;37569;50.548;8.778;2023-04-12T14:54:11;6.2;;;2.3;;
51491;SDS011;37569;50.548;8.778;2023-04-12T14:59:12;2.6;;;2.2;;
51491;SDS011;37569;50.548;8.778;2023-04-12T15:04:12;3.4;;;2.6;;
51491;SDS011;37569;50.548;8.778;2023-04-12T15:09:13;3.1;;;2.4;;
51491;SDS011;37569;50.548;8.778;2023-04-12T15:14:13;3.1;;;2.4;;
51491;SDS011;37569;50.548;8.778;2023-04-12T15:19:14;2.9;;;2.2;;
51491;SDS011;37569;50.548;8.778;2023-04-12T15:24:14;3.3;;;1.7;;
51491;SDS011;37569;50.548;8.778;2023-04-12T15:29:15;1.3;;;0.9;;
51491;SDS011;37569;50.548;8.778;2023-04-12T15:34:16;1.4;;;0.8;;
51491;SDS011;37569;50.548;8.778;2023-04-12T15:39:16;1.4;;;1;;
51491;SDS011;37569;50.548;8.778;2023-04-12T15:44:17;1.3;;;0.9;;
51491;SDS011;37569;50.548;8.778;2023-04-12T15:49:17;1;;;0.8;;
51491;SDS011;37569;50.548;8.778;2023-04-12T15:54:18;1.1;;;0.9;;
51491;SDS011;37569;50.548;8.778;2023-04-12T15:59:18;1.9;;;1;;
51491;SDS011;37569;50.548;8.778;2023-04-12T16:04:19;1.4;;;1;;
51491;SDS011;37569;50.548;8.778;2023-04-12T16:09:19;2.4;;;0.8;;
51491;SDS011;37569;50.548;8.778;2023-04-12T16:14:20;2.3;;;0.8;;
51491;SDS011;37569;50.548;8.778;2023-04-12T16:19:20;1.8;;;1;;
51491;SDS011;37569;50.548;8.778;2023-04-12T16:24:21;2.3;;;1.3;;
51491;SDS011;37569;50.548;8.778;2023-04-12T16:29:21;2.3;;;1.1;;
51491;SDS011;37569;50.548;8.778;2023-04-12T16:34:22;1.8;;;1.1;;
51491;SDS011;37569;50.548;8.778;2023-04-12T16:39:22;4.4;;;2.8;;
51491;SDS011;37569;50.548;8.778;2023-04-12T16:44:22;1.7;;;1.5;;
51491;SDS011;37569;50.548;8.778;2023-04-12T16:49:23;1.5;;;1.4;;
51491;SDS011;37569;50.548;8.778;2023-04-12T16:54:24;1.6;;;1.1;;
51491;SDS011;37569;50.548;8.778;2023-04-12T16:59:24;1.8;;;1.3;;
51491;SDS011;37569;50.548;8.778;2023-04-12T17:04:25;2.1;;;1.2;;
51491;SDS011;37569;50.548;8.778;2023-04-12T17:09:25;2.3;;;1.4;;
51491;SDS011;37569;50.548;8.778;2023-04-12T17:14:26;2.1;;;1.2;;
51491;SDS011;37569;50.548;8.778;2023-04-12T17:19:26;2.1;;;1;;
51491;SDS011;37569;50.548;8.778;2023-04-12T17:24:27;1.5;;;1;;
51491;SDS011;37569;50.548;8.778;2023-04-12T17:29:27;1.8;;;1.4;;
51491;SDS011;37569;50.548;8.778;2023-04-12T17:34:28;1.4;;;1;;
51491;SDS011;37569;50.548;8.778;2023-04-12T17:39:28;1.5;;;0.9;;
51491;SDS011;37569;50.548;8.778;2023-04-12T17:44:29;2.6;;;1.3;;
51491;SDS011;37569;50.548;8.778;2023-04-12T17:49:29;1.7;;;1.1;;
51491;SDS011;37569;50.548;8.778;2023-04-12T17:54:30;2.4;;;1.2;;
51491;SDS011;37569;50.548;8.778;2023-04-12T17:59:30;1.7;;;1.1;;
51491;SDS011;37569;50.548;8.778;2023-04-12T18:04:30;3.1;;;1.2;;
51491;SDS011;37569;50.548;8.778;2023-04-12T18:09:31;5.6;;;1.4;;
51491;SDS011;37569;50.548;8.778;2023-04-12T18:14:31;3.1;;;1.3;;
51491;SDS011;37569;50.548;8.778;2023-04-12T18:19:32;1.8;;;1;;
51491;SDS011;37569;50.548;8.778;2023-04-12T18:24:32;2.3;;;1.1;;
51491;SDS011;37569;50.548;8.778;2023-04-12T18:29:33;2.2;;;1.4;;
51491;SDS011;37569;50.548;8.778;2023-04-12T18:34:33;2.3;;;1.1;;
51491;SDS011;37569;50.548;8.778;2023-04-12T18:39:34;2.9;;;1.2;;
51491;SDS011;37569;50.548;8.778;2023-04-12T18:44:34;2.3;;;1.2;;
51491;SDS011;37569;50.548;8.778;2023-04-12T18:49:34;4.4;;;1.4;;
51491;SDS011;37569;50.548;8.778;2023-04-12T18:54:35;4.3;;;1.5;;
51491;SDS011;37569;50.548;8.778;2023-04-12T18:59:35;3.3;;;1.5;;
51491;SDS011;37569;50.548;8.778;2023-04-12T19:04:36;3.3;;;1.4;;
51491;SDS011;37569;50.548;8.778;2023-04-12T19:09:36;3.2;;;1.5;;
51491;SDS011;37569;50.548;8.778;2023-04-12T19:14:36;4.5;;;1.5;;
51491;SDS011;37569;50.548;8.778;2023-04-12T19:19:37;4.3;;;1.5;;
51491;SDS011;37569;50.548;8.778;2023-04-12T19:24:37;3.8;;;1.7;;
51491;SDS011;37569;50.548;8.778;2023-04-12T19:29:38;4.2;;;1.7;;
51491;SDS011;37569;50.548;8.778;2023-04-12T19:34:38;3;;;1.6;;
51491;SDS011;37569;50.548;8.778;2023-04-12T19:39:38;4.5;;;1.8;;
51491;SDS011;37569;50.548;8.778;2023-04-12T19:44:39;5.1;;;2.1;;
51491;SDS011;37569;50.548;8.778;2023-04-12T19:49:39;4.8;;;2.6;;
51491;SDS011;37569;50.548;8.778;2023-04-12T19:54:39;5;;;2.6;;
51491;SDS011;37569;50.548;8.778;2023-04-12T19:59:40;4.8;;;2;;
51491;SDS011;37569;50.548;8.778;2023-04-12T20:04:40;5.1;;;2;;
51491;SDS011;37569;50.548;8.778;2023-04-12T20:09:40;5.3;;;2.4;;
51491;SDS011;37569;50.548;8.778;2023-04-12T20:14:41;6.3;;;2.3;;
51491;SDS011;37569;50.548;8.778;2023-04-12T20:19:41;4.2;;;2.3;;
51491;SDS011;37569;50.548;8.778;2023-04-12T20:24:41;5.4;;;2.3;;
51491;SDS011;37569;50.548;8.778;2023-04-12T20:29:42;4.2;;;2.1;;
51491;SDS011;37569;50.548;8.778;2023-04-12T20:34:42;4;;;2.1;;
51491;SDS011;37569;50.548;8.778;2023-04-12T20:39:42;4.5;;;2.2;;
51491;SDS011;37569;50.548;8.778;2023-04-12T20:44:43;3.8;;;2.3;;
51491;SDS011;37569;50.548;8.778;2023-04-12T20:49:43;4.4;;;2.3;;
51491;SDS011;37569;50.548;8.778;2023-04-12T20:54:43;6;;;2;;
51491;SDS011;37569;50.548;8.778;2023-04-12T20:59:44;3.6;;;1.7;;
51491;SDS011;37569;50.548;8.778;2023-04-12T21:04:44;2.3;;;1.3;;
51491;SDS011;37569;50.548;8.778;2023-04-12T21:09:44;3.3;;;1.5;;
51491;SDS011;37569;50.548;8.778;2023-04-12T21:14:44;2.3;;;1.4;;
51491;SDS011;37569;50.548;8.778;2023-04-12T21:19:45;2.2;;;1.3;;
51491;SDS011;37569;50.548;8.778;2023-04-12T21:24:45;2.9;;;1.2;;
51491;SDS011;37569;50.548;8.778;2023-04-12T21:29:45;2.7;;;1.2;;
51491;SDS011;37569;50.548;8.778;2023-04-12T21:34:46;2.3;;;1;;
51491;SDS011;37569;50.548;8.778;2023-04-12T21:39:46;2.6;;;1.1;;
51491;SDS011;37569;50.548;8.778;2023-04-12T21:44:46;2.7;;;1;;
51491;SDS011;37569;50.548;8.778;2023-04-12T21:49:47;1.5;;;1;;
51491;SDS011;37569;50.548;8.778;2023-04-12T21:54:47;2.9;;;1.1;;
51491;SDS011;37569;50.548;8.778;2023-04-12T21:59:47;3;;;1.4;;
51491;SDS011;37569;50.548;8.778;2023-04-12T22:04:47;2;;;1.2;;
51491;SDS011;37569;50.548;8.778;2023-04-12T22:09:48;2.7;;;1.3;;
51491;SDS011;37569;50.548;8.778;2023-04-12T22:14:48;1.7;;;1.4;;
51491;SDS011;37569;50.548;8.778;2023-04-12T22:19:50;2.3;;;1.1;;
51491;SDS011;37569;50.548;8.778;2023-04-12T22:24:49;1.9;;;1.3;;
51491;SDS011;37569;50.548;8.778;2023-04-12T22:29:49;3.2;;;1.4;;
51491;SDS011;37569;50.548;8.778;2023-04-12T22:34:49;1.3;;;1.1;;
51491;SDS011;37569;50.548;8.778;2023-04-12T22:39:49;1.7;;;1.1;;
51491;SDS011;37569;50.548;8.778;2023-04-12T22:44:50;3;;;1.4;;
51491;SDS011;37569;50.548;8.778;2023-04-12T22:49:50;2.7;;;1.3;;
51491;SDS011;37569;50.548;8.778;2023-04-12T22:54:50;1.5;;;1.2;;
51491;SDS011;37569;50.548;8.778;2023-04-12T22:59:50;2;;;1.2;;
51491;SDS011;37569;50.548;8.778;2023-04-12T23:04:51;2;;;1.2;;
51491;SDS011;37569;50.548;8.778;2023-04-12T23:09:51;4.3;;;1.2;;
51491;SDS011;37569;50.548;8.778;2023-04-12T23:14:51;2.2;;;1.6;;
51491;SDS011;37569;50.548;8.778;2023-04-12T23:19:51;1.4;;;1.3;;
51491;SDS011;37569;50.548;8.778;2023-04-12T23:24:52;2.8;;;2.3;;
51491;SDS011;37569;50.548;8.778;2023-04-12T23:29:52;4;;;1.8;;
51491;SDS011;37569;50.548;8.778;2023-04-12T23:34:52;1.9;;;1.1;;
51491;SDS011;37569;50.548;8.778;2023-04-12T23:39:52;2.6;;;1.4;;
51491;SDS011;37569;50.548;8.778;2023-04-12T23:44:53;2.2;;;1.2;;
51491;SDS011;37569;50.548;8.778;2023-04-12T23:49:53;1.6;;;1.1;;
51491;SDS011;37569;50.548;8.778;2023-04-12T23:54:53;1.7;;;1.2;;
51491;SDS011;37569;50.548;8.778;2023-04-12T23:59:54;1.6;;;1.2;;
